Time;durP1;ratioP1;P1;durP2;ratioP2;P2;SDS_P1;SDS_P2;PMS_P1;PMS_P2;Temp;Humidity;BMP_temperature;BMP_pressure;BME280_temperature;BME280_humidity;BME280_pressure;Samples;Min_cycle;Max_cycle;Signal;HPM_P1;HPM_P2
2024/01/16 05:19:18;;;;;;;13.57;4.22;;;-4.90;99.90;;;;;;7629232;19;20391;-75
2024/01/16 05:21:50;;;;;;;13.45;4.68;;;-4.90;99.90;;;;;;7623882;19;20445;-76
2024/01/16 05:24:22;;;;;;;12.65;5.18;;;-5.00;99.90;;;;;;7616829;19;20014;-75
2024/01/16 05:26:55;;;;;;;16.27;4.57;;;-4.90;99.90;;;;;;7614863;19;20022;-74
2024/01/16 05:29:27;;;;;;;13.05;4.97;;;-4.80;99.90;;;;;;7582457;19;20010;-76
2024/01/16 05:32:00;;;;;;;19.05;8.88;;;-4.80;99.90;;;;;;7605167;19;20030;-76
2024/01/16 05:34:32;;;;;;;11.80;4.78;;;-4.60;99.90;;;;;;7592428;19;20538;-76
2024/01/16 05:37:04;;;;;;;15.70;5.13;;;-4.60;99.90;;;;;;7595711;19;20226;-75
2024/01/16 05:39:37;;;;;;;16.73;5.03;;;-4.50;99.90;;;;;;7608400;19;20022;-77
2024/01/16 05:42:09;;;;;;;11.45;4.88;;;-4.50;99.90;;;;;;7556321;19;20007;-74
2024/01/16 05:44:41;;;;;;;22.70;6.47;;;-4.50;99.90;;;;;;7567002;19;20415;-77
2024/01/16 05:47:14;;;;;;;25.00;7.95;;;-4.50;99.90;;;;;;7556675;19;20649;-76
2024/01/16 05:49:47;;;;;;;12.75;6.47;;;-4.50;99.90;;;;;;7585906;19;20740;-76
2024/01/16 05:52:19;;;;;;;14.85;6.28;;;-4.50;99.90;;;;;;7580944;19;20010;-75
2024/01/16 05:54:52;;;;;;;14.43;6.30;;;-4.50;99.90;;;;;;7587333;19;20018;-74
2024/01/16 05:57:26;;;;;;;13.40;6.43;;;-4.50;99.90;;;;;;7592142;19;20531;-75
2024/01/16 06:00:02;;;;;;;;;;;-4.50;99.90;;;;;;7604374;19;20014;-75
2024/01/16 06:02:36;;;;;;;14.82;6.10;;;-4.50;99.90;;;;;;7573064;19;20014;-75
2024/01/16 06:05:09;;;;;;;14.57;6.63;;;-4.60;99.90;;;;;;7592376;19;20010;-74
2024/01/16 06:07:42;;;;;;;14.07;6.25;;;-4.60;99.90;;;;;;7597338;19;20014;-74
2024/01/16 06:10:15;;;;;;;15.77;6.20;;;-4.60;99.90;;;;;;7585925;19;20389;-77
2024/01/16 06:12:47;;;;;;;20.33;7.28;;;-4.60;99.90;;;;;;7573111;19;20287;-73
2024/01/16 06:15:19;;;;;;;20.02;6.43;;;-4.60;99.90;;;;;;7595968;19;20014;-76
2024/01/16 06:17:51;;;;;;;17.55;6.85;;;-4.40;99.90;;;;;;7578400;19;20014;-76
2024/01/16 06:20:25;;;;;;;24.25;7.07;;;-4.40;99.90;;;;;;7566667;19;20035;-74
2024/01/16 06:22:58;;;;;;;17.33;7.20;;;-4.30;99.90;;;;;;7574660;19;20022;-75
2024/01/16 06:25:30;;;;;;;20.02;6.72;;;-4.40;99.90;;;;;;7583890;19;20372;-75
2024/01/16 06:28:05;;;;;;;16.02;6.20;;;-4.40;99.90;;;;;;7585725;19;20018;-75
2024/01/16 06:30:37;;;;;;;16.45;6.13;;;-4.50;99.90;;;;;;7561882;19;20054;-74
2024/01/16 06:33:09;;;;;;;18.37;6.13;;;-4.50;99.90;;;;;;7509742;19;20048;-76
2024/01/16 06:35:46;;;;;;;17.10;6.57;;;-4.50;99.90;;;;;;7536930;19;20299;-77
2024/01/16 06:38:21;;;;;;;20.50;7.38;;;-4.60;99.90;;;;;;7563655;19;20026;-72
2024/01/16 06:40:53;;;;;;;15.18;7.20;;;-4.70;99.90;;;;;;7571580;19;20070;-73
2024/01/16 06:43:26;;;;;;;15.45;6.05;;;-4.80;99.90;;;;;;7525127;19;20017;-76
2024/01/16 06:45:59;;;;;;;22.63;7.13;;;-4.80;99.90;;;;;;7582811;19;20575;-78
2024/01/16 06:48:31;;;;;;;25.37;7.70;;;-4.80;99.90;;;;;;7580302;19;20853;-74
2024/01/16 06:51:04;;;;;;;18.27;7.63;;;-4.80;99.90;;;;;;7574182;19;20751;-76
2024/01/16 06:53:37;;;;;;;21.77;7.38;;;-4.80;99.90;;;;;;7567436;19;20038;-76
2024/01/16 06:56:09;;;;;;;22.60;7.60;;;-4.90;99.90;;;;;;7565324;19;20335;-77
2024/01/16 06:58:42;;;;;;;19.00;7.77;;;-4.90;99.90;;;;;;7582457;19;20010;-75
2024/01/16 07:01:14;;;;;;;16.65;8.38;;;-4.90;99.90;;;;;;7573203;19;20032;-76
2024/01/16 07:03:47;;;;;;;23.52;8.43;;;-4.90;99.90;;;;;;7561512;19;20362;-75
2024/01/16 07:06:19;;;;;;;22.17;8.57;;;-5.00;99.90;;;;;;7554638;19;20664;-75
2024/01/16 07:08:54;;;;;;;24.90;6.55;;;-5.10;99.90;;;;;;7162622;19;10000633;-76
2024/01/16 07:11:26;;;;;;;21.77;8.20;;;-5.00;99.90;;;;;;7065981;19;10000020;-74
2024/01/16 07:13:59;;;;;;;23.15;8.55;;;-5.00;99.90;;;;;;7567637;19;20022;-76
2024/01/16 07:16:31;;;;;;;19.35;8.80;;;-5.00;99.90;;;;;;7570129;19;20021;-74
2024/01/16 07:19:04;;;;;;;25.45;9.25;;;-5.00;99.90;;;;;;7581946;19;20010;-75
2024/01/16 07:21:36;;;;;;;20.95;9.00;;;-5.00;99.90;;;;;;7558949;19;20022;-75
2024/01/16 07:24:08;;;;;;;23.67;8.95;;;-4.90;99.90;;;;;;7583470;19;20029;-75
2024/01/16 07:26:41;;;;;;;18.30;8.68;;;-4.80;99.90;;;;;;7566156;19;20930;-75
2024/01/16 07:29:13;;;;;;;15.90;6.63;;;-4.70;99.90;;;;;;7570897;19;20025;-74
2024/01/16 07:31:46;;;;;;;17.80;7.43;;;-4.60;99.90;;;;;;7574360;19;20018;-75
2024/01/16 07:34:21;;;;;;;18.30;8.20;;;-4.60;99.90;;;;;;7579324;19;20030;-75
2024/01/16 07:36:55;;;;;;;16.52;8.18;;;-4.60;99.90;;;;;;7579260;19;20024;-74
2024/01/16 07:39:27;;;;;;;21.35;8.63;;;-4.70;99.90;;;;;;7581541;19;20011;-75
2024/01/16 07:42:00;;;;;;;19.38;10.27;;;-4.60;99.90;;;;;;7569429;19;20015;-76
2024/01/16 07:44:32;;;;;;;19.77;8.13;;;-4.40;99.90;;;;;;7583724;19;20206;-74
2024/01/16 07:47:05;;;;;;;20.47;9.13;;;-4.30;99.90;;;;;;7575552;19;20022;-76
2024/01/16 07:49:37;;;;;;;18.67;7.13;;;-4.30;99.90;;;;;;7578402;19;20077;-74
2024/01/16 07:52:09;;;;;;;15.50;6.65;;;-4.30;99.90;;;;;;7586642;19;20018;-75
2024/01/16 07:54:42;;;;;;;21.35;6.85;;;-4.30;99.90;;;;;;7554710;19;20986;-74
2024/01/16 07:57:14;;;;;;;22.67;8.15;;;-4.20;99.90;;;;;;7582642;19;20033;-75
2024/01/16 07:59:47;;;;;;;19.75;7.63;;;-4.20;99.90;;;;;;7580991;19;20014;-76
2024/01/16 08:02:19;;;;;;;19.35;8.27;;;-4.10;99.90;;;;;;7581369;19;20056;-73
2024/01/16 08:04:55;;;;;;;18.80;7.60;;;-4.00;99.90;;;;;;7572560;19;20018;-75
2024/01/16 08:07:28;;;;;;;19.83;7.72;;;-3.90;99.90;;;;;;7576389;19;21174;-75
2024/01/16 08:10:00;;;;;;;22.65;7.85;;;-3.80;99.90;;;;;;7572390;19;20052;-75
2024/01/16 08:12:33;;;;;;;19.48;8.23;;;-3.70;99.90;;;;;;7559831;19;20014;-75
2024/01/16 08:15:07;;;;;;;20.02;8.20;;;-3.60;99.90;;;;;;7574086;19;20014;-74
2024/01/16 08:17:40;;;;;;;19.40;7.80;;;-3.60;99.90;;;;;;7565999;19;20014;-74
2024/01/16 15:47:41;;;;;;;15.25;6.32;;;-0.40;99.90;;;;;;7624465;19;20382;-74
2024/01/16 15:50:14;;;;;;;12.50;5.97;;;-0.50;99.90;;;;;;7612221;19;20034;-75
2024/01/16 15:52:46;;;;;;;13.32;6.03;;;-0.50;99.90;;;;;;7610260;19;20042;-76
2024/01/16 15:55:20;;;;;;;;;;;-0.50;99.90;;;;;;7613648;19;20028;-76
2024/01/16 15:57:52;;;;;;;14.15;5.90;;;-0.40;99.90;;;;;;7616428;19;19923;-75
2024/01/16 16:00:24;;;;;;;14.30;6.20;;;-0.40;99.90;;;;;;7627142;19;20021;-75
2024/01/16 16:02:59;;;;;;;18.70;8.82;;;-0.40;99.90;;;;;;7630918;19;20024;-76
2024/01/16 16:05:32;;;;;;;14.82;6.82;;;-0.40;99.90;;;;;;7625706;19;20018;-77
2024/01/16 16:08:04;;;;;;;15.52;6.13;;;-0.40;99.90;;;;;;7622060;19;20107;-75
2024/01/16 16:10:37;;;;;;;11.27;5.75;;;-0.30;99.90;;;;;;7628458;19;20018;-75
2024/01/16 16:13:09;;;;;;;18.05;7.30;;;-0.30;99.90;;;;;;7622336;19;20235;-76
2024/01/16 16:15:41;;;;;;;14.60;7.45;;;-0.30;99.90;;;;;;7617842;19;20077;-75
2024/01/16 16:18:14;;;;;;;13.30;7.38;;;-0.30;99.90;;;;;;7618790;19;20081;-75
2024/01/16 16:20:46;;;;;;;12.88;7.35;;;-0.30;99.90;;;;;;7603396;19;20018;-74
2024/01/16 16:23:19;;;;;;;17.67;7.82;;;-0.50;99.90;;;;;;7589734;19;20877;-74
2024/01/16 16:25:52;;;;;;;12.30;6.57;;;-0.50;99.90;;;;;;7606414;19;20765;-74
2024/01/16 16:28:24;;;;;;;18.48;7.32;;;-0.40;99.90;;;;;;7592408;19;20357;-75
2024/01/16 16:30:56;;;;;;;17.02;7.72;;;-0.40;99.90;;;;;;7562709;19;20022;-77
2024/01/16 16:33:32;;;;;;;17.60;7.38;;;-0.40;99.90;;;;;;7592477;19;20018;-75
2024/01/16 16:36:04;;;;;;;16.65;7.03;;;-0.40;99.90;;;;;;7593018;19;20614;-75
2024/01/16 16:38:41;;;;;;;15.15;7.75;;;-0.50;99.90;;;;;;7597375;19;20021;-75
2024/01/16 16:41:13;;;;;;;16.80;9.02;;;-0.50;99.90;;;;;;7588610;19;20055;-76
2024/01/16 16:43:46;;;;;;;16.27;8.63;;;-0.50;99.90;;;;;;7615167;19;20042;-76
2024/01/16 16:46:20;;;;;;;16.85;8.48;;;-0.60;99.90;;;;;;7600547;19;20010;-76
2024/01/16 16:48:53;;;;;;;16.63;7.53;;;-0.80;99.90;;;;;;7596856;19;20013;-75
2024/01/16 16:51:26;;;;;;;19.73;9.10;;;-0.80;99.90;;;;;;7584670;19;20014;-76
2024/01/16 16:53:58;;;;;;;15.23;8.27;;;-1.00;99.90;;;;;;7605364;19;21019;-76
2024/01/16 16:56:32;;;;;;;17.42;9.00;;;-1.10;99.90;;;;;;7610559;19;20811;-74
2024/01/16 16:59:07;;;;;;;17.63;10.18;;;-1.10;99.90;;;;;;7593414;19;20060;-74
2024/01/16 17:01:39;;;;;;;14.80;8.68;;;-1.10;99.90;;;;;;7583456;19;20023;-75
2024/01/16 17:04:12;;;;;;;17.33;8.23;;;-1.10;99.90;;;;;;7581821;19;20030;-74
2024/01/16 17:06:45;;;;;;;20.42;9.27;;;-1.20;99.90;;;;;;7582302;19;20010;-75
2024/01/16 17:09:19;;;;;;;19.50;9.63;;;-1.20;99.90;;;;;;7578280;19;20563;-75
2024/01/16 17:11:53;;;;;;;18.75;9.25;;;-1.20;99.90;;;;;;7561644;19;21201;-74
2024/01/16 17:14:26;;;;;;;22.13;9.80;;;-1.30;99.90;;;;;;7563527;19;20017;-75
2024/01/16 17:16:59;;;;;;;19.63;8.88;;;-1.30;99.90;;;;;;7568974;19;20115;-76
2024/01/16 17:19:32;;;;;;;;;;;-1.40;99.90;;;;;;7567182;19;20021;-75
2024/01/16 17:22:05;;;;;;;15.68;8.85;;;-1.50;99.90;;;;;;7572105;19;19929;-75
2024/01/16 17:24:38;;;;;;;19.95;9.43;;;-1.50;99.90;;;;;;7574018;19;20018;-76
2024/01/16 17:27:10;;;;;;;23.92;10.65;;;-1.60;99.90;;;;;;7570863;19;20015;-76
2024/01/16 17:29:43;;;;;;;19.05;9.73;;;-1.70;99.90;;;;;;7542722;19;20048;-75
2024/01/16 17:32:18;;;;;;;19.38;9.02;;;-1.70;99.90;;;;;;7556804;19;21720;-74
2024/01/16 17:34:50;;;;;;;19.92;9.65;;;-1.80;99.90;;;;;;7559415;19;20542;-73
2024/01/16 17:37:23;;;;;;;29.45;10.52;;;-1.80;99.90;;;;;;7562263;19;20017;-74
2024/01/16 17:39:56;;;;;;;20.73;9.10;;;-1.80;99.90;;;;;;7562643;19;20011;-74
2024/01/16 17:42:28;;;;;;;20.23;10.07;;;-1.90;99.90;;;;;;7552225;19;20039;-73
2024/01/16 17:45:02;;;;;;;23.50;10.68;;;-2.00;99.90;;;;;;7569420;19;20733;-75
2024/01/16 17:47:35;;;;;;;21.60;10.73;;;-2.00;99.90;;;;;;7542343;19;20002;-75
2024/01/16 17:50:11;;;;;;;28.73;12.00;;;-2.00;99.90;;;;;;7571851;19;20114;-74
2024/01/16 17:52:43;;;;;;;29.38;14.60;;;-2.10;99.90;;;;;;7550812;19;20015;-76
2024/01/16 17:55:19;;;;;;;29.03;14.50;;;-2.00;99.90;;;;;;7509769;19;20082;-73
2024/01/16 17:57:52;;;;;;;38.55;16.10;;;-2.00;99.90;;;;;;7550708;19;20019;-74
2024/01/16 18:00:26;;;;;;;41.75;18.23;;;-2.10;99.90;;;;;;7550140;19;27394;-73
2024/01/16 18:02:59;;;;;;;43.35;17.52;;;-2.20;99.90;;;;;;7555728;19;20018;-73
2024/01/16 18:05:32;;;;;;;42.10;18.42;;;-2.30;99.90;;;;;;7537376;19;20021;-73
2024/01/16 18:08:08;;;;;;;;;;;-2.40;99.90;;;;;;7546804;19;20022;-73
2024/01/16 18:10:41;;;;;;;37.65;17.38;;;-2.40;99.90;;;;;;7526596;19;20472;-74
2024/01/16 18:13:14;;;;;;;41.65;18.77;;;-2.50;99.90;;;;;;7550282;19;20830;-73
2024/01/16 18:15:47;;;;;;;39.58;18.70;;;-2.50;99.90;;;;;;7543483;19;20603;-74
2024/01/16 18:18:20;;;;;;;39.10;20.42;;;-2.60;99.90;;;;;;7548747;19;20022;-72
2024/01/16 18:20:53;;;;;;;35.58;18.40;;;-2.60;99.90;;;;;;7537794;19;20014;-74
2024/01/16 18:23:26;;;;;;;37.92;18.90;;;-2.40;99.90;;;;;;7537855;19;20014;-73
2024/01/16 18:25:58;;;;;;;40.53;19.73;;;-2.30;99.90;;;;;;7548319;19;20832;-73
2024/01/16 18:28:32;;;;;;;37.10;17.40;;;-2.30;99.90;;;;;;7535059;19;20010;-73
2024/01/16 18:31:05;;;;;;;37.72;18.98;;;-2.40;99.90;;;;;;7554982;19;21304;-73
2024/01/16 18:33:38;;;;;;;73.18;31.08;;;-2.40;99.90;;;;;;7549588;19;20022;-74
2024/01/16 18:36:11;;;;;;;128.15;38.97;;;-2.50;99.90;;;;;;7535316;19;24096;-74
2024/01/16 18:38:45;;;;;;;65.25;27.75;;;-2.50;99.90;;;;;;7514638;19;21345;-73
2024/01/16 18:41:18;;;;;;;40.25;20.60;;;-2.60;99.90;;;;;;7542376;19;20022;-73
2024/01/16 18:43:52;;;;;;;40.58;19.17;;;-2.70;99.90;;;;;;7539794;19;20139;-73
2024/01/16 18:46:25;;;;;;;43.60;19.52;;;-2.80;99.90;;;;;;7536423;19;20036;-75
2024/01/16 18:48:58;;;;;;;39.78;18.95;;;-2.80;99.90;;;;;;7503415;19;20635;-74
2024/01/16 18:51:31;;;;;;;36.10;18.02;;;-2.90;99.90;;;;;;7531413;19;20053;-73
2024/01/16 18:54:06;;;;;;;39.70;19.23;;;-2.70;99.90;;;;;;6512749;19;10000400;-73
2024/01/16 18:56:38;;;;;;;45.40;20.30;;;-2.70;99.90;;;;;;7531075;19;20010;-73
2024/01/16 18:59:11;;;;;;;34.60;18.90;;;-2.80;99.90;;;;;;7552616;19;20048;-74
2024/01/16 19:01:44;;;;;;;37.03;18.80;;;-2.90;99.90;;;;;;7552759;19;20330;-74
2024/01/16 19:04:17;;;;;;;36.83;17.42;;;-3.00;99.90;;;;;;7537906;19;20740;-74
2024/01/16 19:06:52;;;;;;;35.65;19.02;;;-3.20;99.90;;;;;;7554791;19;20037;-75
2024/01/16 19:09:31;;;;;;;42.60;19.55;;;-3.20;99.90;;;;;;7557115;19;20052;-74
2024/01/16 19:12:05;;;;;;;43.40;20.70;;;-3.30;99.90;;;;;;7555964;19;20639;-73
2024/01/16 19:14:39;;;;;;;47.50;20.67;;;-3.20;99.90;;;;;;7556377;19;20022;-76
2024/01/16 19:17:19;;;;;;;46.60;21.08;;;-3.40;99.90;;;;;;7547708;19;20044;-75
2024/01/16 19:19:52;;;;;;;44.03;21.40;;;-3.40;99.90;;;;;;7538891;19;20460;-75
2024/01/16 19:22:24;;;;;;;45.30;21.20;;;-3.40;99.90;;;;;;7546189;19;20503;-74
2024/01/16 19:24:56;;;;;;;46.97;21.92;;;-3.50;99.90;;;;;;7546112;19;20021;-75
2024/01/16 19:27:29;;;;;;;47.40;23.43;;;-3.50;99.90;;;;;;7543222;19;21373;-73
2024/01/16 19:30:05;;;;;;;57.28;24.10;;;-3.60;99.90;;;;;;7551159;19;20299;-75
2024/01/16 19:32:38;;;;;;;54.13;24.25;;;-3.60;99.90;;;;;;7541787;19;20018;-75
2024/01/16 19:35:12;;;;;;;47.63;23.77;;;-3.60;99.90;;;;;;7547925;19;20981;-74
2024/01/16 19:37:44;;;;;;;53.22;24.42;;;-3.40;99.90;;;;;;7546754;19;20018;-75
2024/01/16 19:40:17;;;;;;;54.35;24.85;;;-3.50;99.90;;;;;;7541207;19;20014;-74
2024/01/16 19:42:50;;;;;;;50.03;24.50;;;-3.60;99.90;;;;;;7531240;19;20373;-74
2024/01/16 19:45:22;;;;;;;49.03;24.85;;;-3.70;99.90;;;;;;7541275;19;20022;-74
2024/01/16 19:47:54;;;;;;;39.05;21.40;;;-3.70;99.90;;;;;;7523872;19;21583;-74
2024/01/16 19:50:28;;;;;;;39.30;21.03;;;-3.80;99.90;;;;;;7523063;19;20018;-73
2024/01/16 19:53:02;;;;;;;38.00;19.83;;;-3.80;99.90;;;;;;7544441;19;20006;-74
2024/01/16 19:55:35;;;;;;;40.10;19.98;;;-3.70;99.90;;;;;;7551611;19;20010;-74
2024/01/16 19:58:10;;;;;;;;;;;-3.70;99.90;;;;;;7548096;19;20378;-73
2024/01/16 20:00:44;;;;;;;45.00;19.23;;;-3.80;99.90;;;;;;7531345;19;19915;-74
2024/01/16 20:03:17;;;;;;;40.45;19.95;;;-3.90;99.90;;;;;;7534849;19;20014;-74
2024/01/16 20:05:49;;;;;;;40.83;21.50;;;-4.00;99.90;;;;;;7554152;19;20038;-73
2024/01/16 20:08:21;;;;;;;42.93;20.80;;;-3.90;99.90;;;;;;7564261;19;20021;-76
2024/01/16 20:10:55;;;;;;;42.03;18.50;;;-4.00;99.90;;;;;;7552980;19;20021;-73
2024/01/16 20:13:28;;;;;;;40.05;18.92;;;-4.00;99.90;;;;;;7557748;19;20026;-72
2024/01/16 20:16:01;;;;;;;49.53;21.02;;;-4.10;99.90;;;;;;7517989;19;20560;-74
2024/01/16 20:18:34;;;;;;;44.38;21.25;;;-4.10;99.90;;;;;;7530904;19;20089;-74
2024/01/16 20:21:09;;;;;;;35.85;18.55;;;-4.10;99.90;;;;;;7531667;19;20018;-74
2024/01/16 20:23:42;;;;;;;41.47;21.17;;;-4.10;99.90;;;;;;7541734;19;20499;-75
2024/01/16 20:26:14;;;;;;;44.28;22.77;;;-4.00;99.90;;;;;;7541792;19;20913;-75
2024/01/16 20:28:47;;;;;;;45.03;21.48;;;-4.10;99.90;;;;;;7536341;19;20075;-76
2024/01/16 20:31:19;;;;;;;51.20;22.42;;;-4.10;99.90;;;;;;7540466;19;20011;-75
